sensor_id;sensor_type;location;lat;lon;timestamp;temperature;humidity
7143;DHT22;3613;48.902;9.204;2024-01-15T00:01:46;-2.40;99.90
7143;DHT22;3613;48.902;9.204;2024-01-15T00:04:12;-2.50;99.90
7143;DHT22;3613;48.902;9.204;2024-01-15T00:06:37;-2.60;99.90
7143;DHT22;3613;48.902;9.204;2024-01-15T00:09:03;-2.80;99.90
7143;DHT22;3613;48.902;9.204;2024-01-15T00:11:31;-2.90;99.90
7143;DHT22;3613;48.902;9.204;2024-01-15T00:13:56;-3.00;99.90
7143;DHT22;3613;48.902;9.204;2024-01-15T00:16:24;-3.20;99.90
7143;DHT22;3613;48.902;9.204;2024-01-15T00:18:50;-3.30;99.90
7143;DHT22;3613;48.902;9.204;2024-01-15T00:21:17;-3.30;99.90
7143;DHT22;3613;48.902;9.204;2024-01-15T00:23:43;-3.40;99.90
7143;DHT22;3613;48.902;9.204;2024-01-15T00:26:14;-3.40;99.90
7143;DHT22;3613;48.902;9.204;2024-01-15T00:28:40;-3.50;99.90
7143;DHT22;3613;48.902;9.204;2024-01-15T00:31:08;-3.50;99.90
7143;DHT22;3613;48.902;9.204;2024-01-15T00:33:34;-3.60;99.90
7143;DHT22;3613;48.902;9.204;2024-01-15T00:35:59;-3.60;99.90
7143;DHT22;3613;48.902;9.204;2024-01-15T00:38:27;-3.60;99.90
7143;DHT22;3613;48.902;9.204;2024-01-15T00:40:53;-3.60;99.90
7143;DHT22;3613;48.902;9.204;2024-01-15T00:43:18;-3.50;99.90
7143;DHT22;3613;48.902;9.204;2024-01-15T00:45:45;-1.30;99.90
7143;DHT22;3613;48.902;9.204;2024-01-15T00:48:10;-3.40;99.90
7143;DHT22;3613;48.902;9.204;2024-01-15T00:50:36;-3.40;99.90
7143;DHT22;3613;48.902;9.204;2024-01-15T00:53:02;-3.30;99.90
7143;DHT22;3613;48.902;9.204;2024-01-15T00:55:28;-3.10;99.90
7143;DHT22;3613;48.902;9.204;2024-01-15T00:57:54;-3.00;99.90
7143;DHT22;3613;48.902;9.204;2024-01-15T01:00:22;-1.30;99.90
7143;DHT22;3613;48.902;9.204;2024-01-15T01:02:50;-2.70;99.90
7143;DHT22;3613;48.902;9.204;2024-01-15T01:05:20;-2.70;99.90
7143;DHT22;3613;48.902;9.204;2024-01-15T01:07:46;-2.70;99.90
7143;DHT22;3613;48.902;9.204;2024-01-15T01:10:12;-2.60;99.90
7143;DHT22;3613;48.902;9.204;2024-01-15T01:12:37;-2.50;99.90
7143;DHT22;3613;48.902;9.204;2024-01-15T01:15:03;-2.50;99.90
7143;DHT22;3613;48.902;9.204;2024-01-15T01:17:29;-2.40;99.90
7143;DHT22;3613;48.902;9.204;2024-01-15T01:19:56;-2.40;99.90
7143;DHT22;3613;48.902;9.204;2024-01-15T01:22:24;-2.20;99.90
7143;DHT22;3613;48.902;9.204;2024-01-15T01:24:49;-2.10;99.90
7143;DHT22;3613;48.902;9.204;2024-01-15T01:27:17;-2.00;99.90
7143;DHT22;3613;48.902;9.204;2024-01-15T01:29:45;-2.00;99.90
7143;DHT22;3613;48.902;9.204;2024-01-15T01:32:11;-1.90;99.90
7143;DHT22;3613;48.902;9.204;2024-01-15T01:34:40;-1.90;99.90
7143;DHT22;3613;48.902;9.204;2024-01-15T01:37:10;-1.90;99.90
7143;DHT22;3613;48.902;9.204;2024-01-15T01:39:39;-1.80;99.90
7143;DHT22;3613;48.902;9.204;2024-01-15T01:42:05;-1.70;99.90
7143;DHT22;3613;48.902;9.204;2024-01-15T01:44:30;-1.60;99.90
7143;DHT22;3613;48.902;9.204;2024-01-15T01:46:57;-1.60;99.90
7143;DHT22;3613;48.902;9.204;2024-01-15T01:49:26;-1.50;99.90
7143;DHT22;3613;48.902;9.204;2024-01-15T01:51:57;-1.50;99.90
7143;DHT22;3613;48.902;9.204;2024-01-15T01:54:23;-1.40;99.90
7143;DHT22;3613;48.902;9.204;2024-01-15T01:56:50;-1.40;99.90
7143;DHT22;3613;48.902;9.204;2024-01-15T01:59:16;-1.30;99.90
7143;DHT22;3613;48.902;9.204;2024-01-15T02:01:43;-1.30;99.90
7143;DHT22;3613;48.902;9.204;2024-01-15T02:04:10;-1.20;99.90
7143;DHT22;3613;48.902;9.204;2024-01-15T02:06:39;-1.10;99.90
7143;DHT22;3613;48.902;9.204;2024-01-15T02:09:08;-1.10;99.90
7143;DHT22;3613;48.902;9.204;2024-01-15T02:11:35;-1.10;99.90
7143;DHT22;3613;48.902;9.204;2024-01-15T02:14:01;-1.00;99.90
7143;DHT22;3613;48.902;9.204;2024-01-15T02:16:27;-1.00;99.90
7143;DHT22;3613;48.902;9.204;2024-01-15T02:18:53;-1.00;99.90
7143;DHT22;3613;48.902;9.204;2024-01-15T02:21:21;-1.00;99.90
7143;DHT22;3613;48.902;9.204;2024-01-15T02:23:47;-1.00;99.90
7143;DHT22;3613;48.902;9.204;2024-01-15T02:26:15;-0.90;99.90
7143;DHT22;3613;48.902;9.204;2024-01-15T02:28:43;-0.90;99.90
7143;DHT22;3613;48.902;9.204;2024-01-15T02:31:09;-0.80;99.90
7143;DHT22;3613;48.902;9.204;2024-01-15T02:33:40;-0.80;99.90
7143;DHT22;3613;48.902;9.204;2024-01-15T02:36:08;-0.80;99.90
7143;DHT22;3613;48.902;9.204;2024-01-15T02:38:35;-0.90;99.90
7143;DHT22;3613;48.902;9.204;2024-01-15T02:41:01;-0.90;99.90
7143;DHT22;3613;48.902;9.204;2024-01-15T02:43:29;1.10;99.90
7143;DHT22;3613;48.902;9.204;2024-01-15T02:45:57;-1.00;99.90
7143;DHT22;3613;48.902;9.204;2024-01-15T02:48:25;-1.10;99.90
7143;DHT22;3613;48.902;9.204;2024-01-15T02:50:50;-1.20;99.90
7143;DHT22;3613;48.902;9.204;2024-01-15T02:53:16;-1.30;99.90
7143;DHT22;3613;48.902;9.204;2024-01-15T02:55:42;-1.40;99.90
7143;DHT22;3613;48.902;9.204;2024-01-15T02:58:07;-1.40;99.90
7143;DHT22;3613;48.902;9.204;2024-01-15T03:00:35;-1.40;99.90
7143;DHT22;3613;48.902;9.204;2024-01-15T03:03:01;-1.40;99.90
7143;DHT22;3613;48.902;9.204;2024-01-15T03:05:26;-1.40;99.90
7143;DHT22;3613;48.902;9.204;2024-01-15T03:07:57;-1.40;99.90
7143;DHT22;3613;48.902;9.204;2024-01-15T03:10:22;-1.30;99.90
7143;DHT22;3613;48.902;9.204;2024-01-15T03:12:50;-0.70;99.90
7143;DHT22;3613;48.902;9.204;2024-01-15T03:15:16;-1.30;99.90
7143;DHT22;3613;48.902;9.204;2024-01-15T03:17:43;-1.30;99.90
7143;DHT22;3613;48.902;9.204;2024-01-15T03:20:09;-1.20;99.90
7143;DHT22;3613;48.902;9.204;2024-01-15T03:22:35;-1.20;99.90
7143;DHT22;3613;48.902;9.204;2024-01-15T03:25:03;-1.20;99.90
7143;DHT22;3613;48.902;9.204;2024-01-15T03:27:29;-1.20;99.90
7143;DHT22;3613;48.902;9.204;2024-01-15T03:29:55;-1.10;99.90
7143;DHT22;3613;48.902;9.204;2024-01-15T03:32:22;-1.10;99.90
7143;DHT22;3613;48.902;9.204;2024-01-15T03:34:48;-1.10;99.90
7143;DHT22;3613;48.902;9.204;2024-01-15T03:37:14;-1.10;99.90
7143;DHT22;3613;48.902;9.204;2024-01-15T03:39:39;-1.10;99.90
7143;DHT22;3613;48.902;9.204;2024-01-15T03:42:07;-1.10;99.90
7143;DHT22;3613;48.902;9.204;2024-01-15T03:44:38;-1.10;99.90
7143;DHT22;3613;48.902;9.204;2024-01-15T03:47:06;-1.00;99.90
7143;DHT22;3613;48.902;9.204;2024-01-15T03:49:32;-0.90;99.90
7143;DHT22;3613;48.902;9.204;2024-01-15T03:51:57;-0.90;99.90
7143;DHT22;3613;48.902;9.204;2024-01-15T03:54:25;-0.90;99.90
7143;DHT22;3613;48.902;9.204;2024-01-15T03:56:52;-0.80;99.90
7143;DHT22;3613;48.902;9.204;2024-01-15T03:59:20;-0.80;99.90
7143;DHT22;3613;48.902;9.204;2024-01-15T04:01:49;-0.80;99.90
7143;DHT22;3613;48.902;9.204;2024-01-15T04:04:18;-0.70;99.90
7143;DHT22;3613;48.902;9.204;2024-01-15T04:06:46;-0.70;99.90
7143;DHT22;3613;48.902;9.204;2024-01-15T04:09:12;-0.70;99.90
7143;DHT22;3613;48.902;9.204;2024-01-15T04:11:41;-0.60;99.90
7143;DHT22;3613;48.902;9.204;2024-01-15T04:14:06;-0.70;99.90
7143;DHT22;3613;48.902;9.204;2024-01-15T04:16:32;-0.60;99.90
7143;DHT22;3613;48.902;9.204;2024-01-15T04:18:57;-0.60;99.90
7143;DHT22;3613;48.902;9.204;2024-01-15T04:21:23;-0.50;99.90
7143;DHT22;3613;48.902;9.204;2024-01-15T04:23:49;-0.50;99.90
7143;DHT22;3613;48.902;9.204;2024-01-15T04:26:14;-0.50;99.90
7143;DHT22;3613;48.902;9.204;2024-01-15T04:28:42;-0.40;99.90
7143;DHT22;3613;48.902;9.204;2024-01-15T04:31:08;-0.40;99.90
7143;DHT22;3613;48.902;9.204;2024-01-15T04:33:36;-0.40;99.90
7143;DHT22;3613;48.902;9.204;2024-01-15T04:36:04;-0.40;99.90
7143;DHT22;3613;48.902;9.204;2024-01-15T04:38:33;-0.40;99.90
7143;DHT22;3613;48.902;9.204;2024-01-15T04:41:01;-0.30;99.90
7143;DHT22;3613;48.902;9.204;2024-01-15T04:43:29;-0.20;99.90
7143;DHT22;3613;48.902;9.204;2024-01-15T04:45:55;-0.20;99.90
7143;DHT22;3613;48.902;9.204;2024-01-15T04:48:20;-0.20;99.90
7143;DHT22;3613;48.902;9.204;2024-01-15T04:50:48;-0.10;99.90
7143;DHT22;3613;48.902;9.204;2024-01-15T04:53:14;-0.20;99.90
7143;DHT22;3613;48.902;9.204;2024-01-15T04:55:39;-0.10;99.90
7143;DHT22;3613;48.902;9.204;2024-01-15T04:58:05;-0.10;99.90
7143;DHT22;3613;48.902;9.204;2024-01-15T05:00:33;-0.10;99.90
7143;DHT22;3613;48.902;9.204;2024-01-15T05:02:58;-0.10;99.90
7143;DHT22;3613;48.902;9.204;2024-01-15T05:05:24;-0.10;99.90
7143;DHT22;3613;48.902;9.204;2024-01-15T05:07:49;-0.10;99.90
7143;DHT22;3613;48.902;9.204;2024-01-15T05:10:17;-0.10;99.90
7143;DHT22;3613;48.902;9.204;2024-01-15T05:12:43;0.00;99.90
7143;DHT22;3613;48.902;9.204;2024-01-15T05:15:08;0.10;99.90
7143;DHT22;3613;48.902;9.204;2024-01-15T05:17:35;0.00;99.90
7143;DHT22;3613;48.902;9.204;2024-01-15T05:20:00;0.00;99.90
7143;DHT22;3613;48.902;9.204;2024-01-15T05:22:26;0.00;99.90
7143;DHT22;3613;48.902;9.204;2024-01-15T05:24:51;0.10;99.90
7143;DHT22;3613;48.902;9.204;2024-01-15T05:27:17;0.10;99.90
7143;DHT22;3613;48.902;9.204;2024-01-15T05:29:45;0.10;99.90
7143;DHT22;3613;48.902;9.204;2024-01-15T05:32:11;0.10;99.90
7143;DHT22;3613;48.902;9.204;2024-01-15T05:34:36;0.10;99.90
7143;DHT22;3613;48.902;9.204;2024-01-15T05:37:02;0.10;99.90
7143;DHT22;3613;48.902;9.204;2024-01-15T05:39:28;0.10;99.90
7143;DHT22;3613;48.902;9.204;2024-01-15T05:41:53;0.10;99.90
7143;DHT22;3613;48.902;9.204;2024-01-15T05:44:21;0.10;99.90
7143;DHT22;3613;48.902;9.204;2024-01-15T05:46:49;0.10;99.90
7143;DHT22;3613;48.902;9.204;2024-01-15T05:49:15;0.20;99.90
7143;DHT22;3613;48.902;9.204;2024-01-15T05:51:43;0.20;99.90
7143;DHT22;3613;48.902;9.204;2024-01-15T05:54:08;0.20;99.90
7143;DHT22;3613;48.902;9.204;2024-01-15T05:56:36;0.20;99.90
7143;DHT22;3613;48.902;9.204;2024-01-15T05:59:02;0.20;99.90
7143;DHT22;3613;48.902;9.204;2024-01-15T06:01:30;0.20;99.90
7143;DHT22;3613;48.902;9.204;2024-01-15T06:03:58;0.20;99.90
7143;DHT22;3613;48.902;9.204;2024-01-15T06:06:23;0.20;99.90
7143;DHT22;3613;48.902;9.204;2024-01-15T06:08:51;0.30;99.90
7143;DHT22;3613;48.902;9.204;2024-01-15T06:11:17;0.20;99.90
7143;DHT22;3613;48.902;9.204;2024-01-15T06:13:45;0.30;99.90
7143;DHT22;3613;48.902;9.204;2024-01-15T06:16:16;0.30;99.90
7143;DHT22;3613;48.902;9.204;2024-01-15T06:18:46;0.40;99.90
7143;DHT22;3613;48.902;9.204;2024-01-15T06:21:12;0.30;99.90
7143;DHT22;3613;48.902;9.204;2024-01-15T06:23:40;0.30;99.90
7143;DHT22;3613;48.902;9.204;2024-01-15T06:26:11;0.30;99.90
7143;DHT22;3613;48.902;9.204;2024-01-15T06:28:41;0.30;99.90
7143;DHT22;3613;48.902;9.204;2024-01-15T06:31:07;0.30;99.90
7143;DHT22;3613;48.902;9.204;2024-01-15T06:33:33;0.30;99.90
7143;DHT22;3613;48.902;9.204;2024-01-15T06:35:59;2.10;99.90
7143;DHT22;3613;48.902;9.204;2024-01-15T06:38:24;0.30;99.90
7143;DHT22;3613;48.902;9.204;2024-01-15T06:40:51;0.30;99.90
7143;DHT22;3613;48.902;9.204;2024-01-15T06:43:17;0.30;99.90
7143;DHT22;3613;48.902;9.204;2024-01-15T06:45:43;0.30;99.90
7143;DHT22;3613;48.902;9.204;2024-01-15T06:48:09;0.30;99.90
7143;DHT22;3613;48.902;9.204;2024-01-15T06:50:35;0.30;99.90
7143;DHT22;3613;48.902;9.204;2024-01-15T06:53:00;2.20;99.90
7143;DHT22;3613;48.902;9.204;2024-01-15T06:55:26;-1.20;99.90
7143;DHT22;3613;48.902;9.204;2024-01-15T06:57:53;0.60;99.90
7143;DHT22;3613;48.902;9.204;2024-01-15T07:00:18;0.60;99.90
7143;DHT22;3613;48.902;9.204;2024-01-15T07:02:47;0.50;99.90
7143;DHT22;3613;48.902;9.204;2024-01-15T07:05:13;0.50;99.90
7143;DHT22;3613;48.902;9.204;2024-01-15T07:07:38;0.40;99.90
7143;DHT22;3613;48.902;9.204;2024-01-15T07:10:07;0.40;99.90
7143;DHT22;3613;48.902;9.204;2024-01-15T07:12:36;0.40;99.90
7143;DHT22;3613;48.902;9.204;2024-01-15T07:15:01;0.40;99.90
7143;DHT22;3613;48.902;9.204;2024-01-15T07:17:27;0.40;99.90
7143;DHT22;3613;48.902;9.204;2024-01-15T07:19:53;0.40;99.90
7143;DHT22;3613;48.902;9.204;2024-01-15T07:22:18;0.40;99.90
7143;DHT22;3613;48.902;9.204;2024-01-15T07:24:45;2.20;99.90
7143;DHT22;3613;48.902;9.204;2024-01-15T07:27:11;0.50;99.90
7143;DHT22;3613;48.902;9.204;2024-01-15T07:29:37;0.50;99.90
7143;DHT22;3613;48.902;9.204;2024-01-15T07:32:05;0.50;99.90
7143;DHT22;3613;48.902;9.204;2024-01-15T07:34:31;0.50;99.90
7143;DHT22;3613;48.902;9.204;2024-01-15T07:36:59;0.70;99.90
7143;DHT22;3613;48.902;9.204;2024-01-15T07:39:25;0.60;99.90
7143;DHT22;3613;48.902;9.204;2024-01-15T07:41:51;0.60;99.90
7143;DHT22;3613;48.902;9.204;2024-01-15T07:44:19;0.60;99.90
7143;DHT22;3613;48.902;9.204;2024-01-15T07:46:48;0.60;99.90
7143;DHT22;3613;48.902;9.204;2024-01-15T07:49:13;0.70;99.90
7143;DHT22;3613;48.902;9.204;2024-01-15T07:51:44;0.70;99.90
7143;DHT22;3613;48.902;9.204;2024-01-15T07:54:12;1.00;99.90
7143;DHT22;3613;48.902;9.204;2024-01-15T07:56:57;0.80;99.90
7143;DHT22;3613;48.902;9.204;2024-01-15T07:59:23;0.80;99.90
7143;DHT22;3613;48.902;9.204;2024-01-15T08:01:50;0.80;99.90
7143;DHT22;3613;48.902;9.204;2024-01-15T08:04:15;0.80;99.90
7143;DHT22;3613;48.902;9.204;2024-01-15T08:06:41;0.80;99.90
7143;DHT22;3613;48.902;9.204;2024-01-15T08:09:06;0.90;99.90
7143;DHT22;3613;48.902;9.204;2024-01-15T08:11:34;0.90;99.90
7143;DHT22;3613;48.902;9.204;2024-01-15T08:13:59;0.90;99.90
7143;DHT22;3613;48.902;9.204;2024-01-15T08:16:27;1.00;99.90
7143;DHT22;3613;48.902;9.204;2024-01-15T08:18:54;1.00;99.90
7143;DHT22;3613;48.902;9.204;2024-01-15T08:21:19;1.00;99.90
7143;DHT22;3613;48.902;9.204;2024-01-15T08:23:45;1.00;99.90
7143;DHT22;3613;48.902;9.204;2024-01-15T08:26:11;1.10;99.90
7143;DHT22;3613;48.902;9.204;2024-01-15T08:28:36;1.10;99.90
7143;DHT22;3613;48.902;9.204;2024-01-15T08:31:02;1.20;99.90
7143;DHT22;3613;48.902;9.204;2024-01-15T08:33:28;1.20;99.90
7143;DHT22;3613;48.902;9.204;2024-01-15T08:35:54;1.20;99.90
7143;DHT22;3613;48.902;9.204;2024-01-15T08:38:20;1.30;99.90
7143;DHT22;3613;48.902;9.204;2024-01-15T08:40:46;1.30;99.90
7143;DHT22;3613;48.902;9.204;2024-01-15T08:43:14;1.30;99.90
7143;DHT22;3613;48.902;9.204;2024-01-15T08:45:42;1.40;99.90
7143;DHT22;3613;48.902;9.204;2024-01-15T08:48:10;1.40;99.90
7143;DHT22;3613;48.902;9.204;2024-01-15T08:50:35;1.50;99.90
7143;DHT22;3613;48.902;9.204;2024-01-15T08:53:01;1.60;99.90
7143;DHT22;3613;48.902;9.204;2024-01-15T08:55:27;1.60;99.90
7143;DHT22;3613;48.902;9.204;2024-01-15T08:57:52;1.60;99.90
7143;DHT22;3613;48.902;9.204;2024-01-15T09:00:18;1.70;99.90
7143;DHT22;3613;48.902;9.204;2024-01-15T09:02:44;1.70;99.90
7143;DHT22;3613;48.902;9.204;2024-01-15T09:05:12;1.70;99.90
7143;DHT22;3613;48.902;9.204;2024-01-15T09:07:40;1.90;99.90
7143;DHT22;3613;48.902;9.204;2024-01-15T09:10:06;1.80;99.90
7143;DHT22;3613;48.902;9.204;2024-01-15T09:12:34;1.90;99.90
7143;DHT22;3613;48.902;9.204;2024-01-15T09:14:59;2.00;99.90
7143;DHT22;3613;48.902;9.204;2024-01-15T09:17:25;2.00;99.90
7143;DHT22;3613;48.902;9.204;2024-01-15T09:19:53;2.10;99.90
7143;DHT22;3613;48.902;9.204;2024-01-15T09:22:19;2.20;99.90
7143;DHT22;3613;48.902;9.204;2024-01-15T09:24:47;2.30;99.90
7143;DHT22;3613;48.902;9.204;2024-01-15T09:27:13;2.30;99.90
7143;DHT22;3613;48.902;9.204;2024-01-15T09:29:38;2.40;99.90
7143;DHT22;3613;48.902;9.204;2024-01-15T09:32:06;2.40;99.90
7143;DHT22;3613;48.902;9.204;2024-01-15T09:34:33;2.50;99.90
7143;DHT22;3613;48.902;9.204;2024-01-15T09:36:59;2.40;99.90
7143;DHT22;3613;48.902;9.204;2024-01-15T09:39:25;2.50;99.90
7143;DHT22;3613;48.902;9.204;2024-01-15T09:41:52;2.50;99.90
7143;DHT22;3613;48.902;9.204;2024-01-15T09:44:19;2.50;99.90
7143;DHT22;3613;48.902;9.204;2024-01-15T09:46:45;2.70;99.90
7143;DHT22;3613;48.902;9.204;2024-01-15T09:49:11;2.50;99.90
7143;DHT22;3613;48.902;9.204;2024-01-15T09:51:38;2.50;99.90
7143;DHT22;3613;48.902;9.204;2024-01-15T09:54:07;2.50;99.90
7143;DHT22;3613;48.902;9.204;2024-01-15T09:56:36;2.50;99.90
7143;DHT22;3613;48.902;9.204;2024-01-15T09:59:02;2.50;99.90
7143;DHT22;3613;48.902;9.204;2024-01-15T10:01:31;2.60;99.90
7143;DHT22;3613;48.902;9.204;2024-01-15T10:03:58;2.70;99.90
7143;DHT22;3613;48.902;9.204;2024-01-15T10:06:26;2.60;99.90
7143;DHT22;3613;48.902;9.204;2024-01-15T10:08:54;2.70;99.90
7143;DHT22;3613;48.902;9.204;2024-01-15T10:11:20;2.70;99.90
7143;DHT22;3613;48.902;9.204;2024-01-15T10:13:47;2.70;99.90
7143;DHT22;3613;48.902;9.204;2024-01-15T10:16:12;2.60;99.90
7143;DHT22;3613;48.902;9.204;2024-01-15T10:18:38;2.50;99.90
7143;DHT22;3613;48.902;9.204;2024-01-15T10:21:08;2.50;99.90
7143;DHT22;3613;48.902;9.204;2024-01-15T10:23:35;3.30;99.90
7143;DHT22;3613;48.902;9.204;2024-01-15T10:26:02;2.50;99.90
7143;DHT22;3613;48.902;9.204;2024-01-15T10:28:30;2.50;99.90
7143;DHT22;3613;48.902;9.204;2024-01-15T10:30:57;4.20;99.90
7143;DHT22;3613;48.902;9.204;2024-01-15T10:33:24;2.50;99.90
7143;DHT22;3613;48.902;9.204;2024-01-15T10:35:55;2.50;99.90
7143;DHT22;3613;48.902;9.204;2024-01-15T10:38:21;2.40;99.90
7143;DHT22;3613;48.902;9.204;2024-01-15T10:40:51;2.40;99.90
7143;DHT22;3613;48.902;9.204;2024-01-15T10:43:17;2.50;99.90
7143;DHT22;3613;48.902;9.204;2024-01-15T10:45:46;2.50;99.90
7143;DHT22;3613;48.902;9.204;2024-01-15T10:48:17;3.60;99.90
7143;DHT22;3613;48.902;9.204;2024-01-15T10:50:46;2.40;99.90
7143;DHT22;3613;48.902;9.204;2024-01-15T10:53:14;2.40;99.90
7143;DHT22;3613;48.902;9.204;2024-01-15T10:55:41;2.30;99.90
7143;DHT22;3613;48.902;9.204;2024-01-15T10:58:07;2.30;99.90
7143;DHT22;3613;48.902;9.204;2024-01-15T11:00:37;2.20;99.90
7143;DHT22;3613;48.902;9.204;2024-01-15T11:03:06;2.10;99.90
7143;DHT22;3613;48.902;9.204;2024-01-15T11:05:44;2.10;99.90
7143;DHT22;3613;48.902;9.204;2024-01-15T11:08:10;2.10;99.90
7143;DHT22;3613;48.902;9.204;2024-01-15T11:10:49;2.20;99.90
7143;DHT22;3613;48.902;9.204;2024-01-15T11:13:45;1.90;99.90
7143;DHT22;3613;48.902;9.204;2024-01-15T11:16:14;1.40;99.90
7143;DHT22;3613;48.902;9.204;2024-01-15T11:18:41;1.50;99.90
7143;DHT22;3613;48.902;9.204;2024-01-15T11:23:54;1.40;99.90
7143;DHT22;3613;48.902;9.204;2024-01-15T11:29:04;1.20;99.90
7143;DHT22;3613;48.902;9.204;2024-01-15T11:34:10;1.20;99.90
7143;DHT22;3613;48.902;9.204;2024-01-15T11:42:02;1.30;99.90
7143;DHT22;3613;48.902;9.204;2024-01-15T11:44:31;1.30;99.90
7143;DHT22;3613;48.902;9.204;2024-01-15T11:47:09;1.40;99.90
7143;DHT22;3613;48.902;9.204;2024-01-15T11:52:22;1.30;99.90
7143;DHT22;3613;48.902;9.204;2024-01-15T11:57:52;1.20;99.90
7143;DHT22;3613;48.902;9.204;2024-01-15T12:00:20;1.20;99.90
7143;DHT22;3613;48.902;9.204;2024-01-15T12:02:49;1.10;99.90
7143;DHT22;3613;48.902;9.204;2024-01-15T12:05:18;1.10;99.90
7143;DHT22;3613;48.902;9.204;2024-01-15T12:07:45;1.10;99.90
7143;DHT22;3613;48.902;9.204;2024-01-15T12:10:19;1.10;99.90
7143;DHT22;3613;48.902;9.204;2024-01-15T12:15:27;1.10;99.90
7143;DHT22;3613;48.902;9.204;2024-01-15T12:17:55;1.10;99.90
7143;DHT22;3613;48.902;9.204;2024-01-15T12:20:27;1.10;99.90
7143;DHT22;3613;48.902;9.204;2024-01-15T12:22:53;1.10;99.90
7143;DHT22;3613;48.902;9.204;2024-01-15T12:25:21;1.10;99.90
7143;DHT22;3613;48.902;9.204;2024-01-15T12:27:47;1.10;99.90
7143;DHT22;3613;48.902;9.204;2024-01-15T12:30:15;1.20;99.90
7143;DHT22;3613;48.902;9.204;2024-01-15T12:32:41;1.20;99.90
7143;DHT22;3613;48.902;9.204;2024-01-15T12:35:08;2.80;99.90
7143;DHT22;3613;48.902;9.204;2024-01-15T12:37:40;1.20;99.90
7143;DHT22;3613;48.902;9.204;2024-01-15T12:40:07;1.20;99.90
7143;DHT22;3613;48.902;9.204;2024-01-15T12:42:44;1.20;99.90
7143;DHT22;3613;48.902;9.204;2024-01-15T12:45:11;1.10;99.90
7143;DHT22;3613;48.902;9.204;2024-01-15T12:47:38;1.20;99.90
7143;DHT22;3613;48.902;9.204;2024-01-15T12:50:10;1.20;99.90
7143;DHT22;3613;48.902;9.204;2024-01-15T12:52:39;1.20;99.90
7143;DHT22;3613;48.902;9.204;2024-01-15T12:55:09;1.30;99.90
7143;DHT22;3613;48.902;9.204;2024-01-15T12:57:35;1.20;99.90
7143;DHT22;3613;48.902;9.204;2024-01-15T13:00:04;1.30;99.90
7143;DHT22;3613;48.902;9.204;2024-01-15T13:02:39;1.20;99.90
7143;DHT22;3613;48.902;9.204;2024-01-15T13:05:08;3.30;99.90
7143;DHT22;3613;48.902;9.204;2024-01-15T13:07:36;1.30;99.90
7143;DHT22;3613;48.902;9.204;2024-01-15T13:10:01;1.30;99.90
7143;DHT22;3613;48.902;9.204;2024-01-15T13:12:28;1.30;99.90
7143;DHT22;3613;48.902;9.204;2024-01-15T13:14:53;1.30;99.90
7143;DHT22;3613;48.902;9.204;2024-01-15T13:17:21;1.30;99.90
7143;DHT22;3613;48.902;9.204;2024-01-15T13:19:47;1.20;99.90
7143;DHT22;3613;48.902;9.204;2024-01-15T13:22:13;1.20;99.90
7143;DHT22;3613;48.902;9.204;2024-01-15T13:24:39;1.20;99.90
7143;DHT22;3613;48.902;9.204;2024-01-15T13:27:05;1.20;99.90
7143;DHT22;3613;48.902;9.204;2024-01-15T13:29:33;1.20;99.90
7143;DHT22;3613;48.902;9.204;2024-01-15T13:32:01;1.20;99.90
7143;DHT22;3613;48.902;9.204;2024-01-15T13:34:28;1.10;99.90
7143;DHT22;3613;48.902;9.204;2024-01-15T13:36:54;1.20;99.90
7143;DHT22;3613;48.902;9.204;2024-01-15T13:39:22;1.20;99.90
7143;DHT22;3613;48.902;9.204;2024-01-15T13:41:49;1.30;99.90
7143;DHT22;3613;48.902;9.204;2024-01-15T13:44:14;1.40;99.90
7143;DHT22;3613;48.902;9.204;2024-01-15T13:46:40;1.40;99.90
7143;DHT22;3613;48.902;9.204;2024-01-15T13:49:09;2.30;99.90
7143;DHT22;3613;48.902;9.204;2024-01-15T13:51:37;1.40;99.90
7143;DHT22;3613;48.902;9.204;2024-01-15T13:54:03;1.40;99.90
7143;DHT22;3613;48.902;9.204;2024-01-15T13:56:32;1.30;99.90
7143;DHT22;3613;48.902;9.204;2024-01-15T13:58:58;1.30;99.90
7143;DHT22;3613;48.902;9.204;2024-01-15T14:01:27;1.30;99.90
7143;DHT22;3613;48.902;9.204;2024-01-15T14:03:56;1.30;99.90
7143;DHT22;3613;48.902;9.204;2024-01-15T14:06:37;1.30;99.90
7143;DHT22;3613;48.902;9.204;2024-01-15T14:09:02;1.20;99.90
7143;DHT22;3613;48.902;9.204;2024-01-15T14:11:32;1.20;99.90
7143;DHT22;3613;48.902;9.204;2024-01-15T14:13:58;1.20;99.90
7143;DHT22;3613;48.902;9.204;2024-01-15T14:16:23;1.20;99.90
7143;DHT22;3613;48.902;9.204;2024-01-15T14:18:49;1.10;99.90
7143;DHT22;3613;48.902;9.204;2024-01-15T14:21:17;1.10;99.90
7143;DHT22;3613;48.902;9.204;2024-01-15T14:23:43;1.10;99.90
7143;DHT22;3613;48.902;9.204;2024-01-15T14:26:11;1.10;99.90
7143;DHT22;3613;48.902;9.204;2024-01-15T14:28:39;1.00;99.90
7143;DHT22;3613;48.902;9.204;2024-01-15T14:31:05;1.10;99.90
7143;DHT22;3613;48.902;9.204;2024-01-15T14:33:35;1.00;99.90
7143;DHT22;3613;48.902;9.204;2024-01-15T14:36:01;1.00;99.90
7143;DHT22;3613;48.902;9.204;2024-01-15T14:38:27;0.90;99.90
7143;DHT22;3613;48.902;9.204;2024-01-15T14:40:54;0.80;99.90
7143;DHT22;3613;48.902;9.204;2024-01-15T14:43:20;0.90;99.90
7143;DHT22;3613;48.902;9.204;2024-01-15T14:45:48;0.90;99.90
7143;DHT22;3613;48.902;9.204;2024-01-15T14:48:16;0.90;99.90
7143;DHT22;3613;48.902;9.204;2024-01-15T14:50:44;0.90;99.90
7143;DHT22;3613;48.902;9.204;2024-01-15T14:53:10;0.90;99.90
7143;DHT22;3613;48.902;9.204;2024-01-15T14:55:36;0.80;99.90
7143;DHT22;3613;48.902;9.204;2024-01-15T14:58:01;0.90;99.90
7143;DHT22;3613;48.902;9.204;2024-01-15T15:00:27;0.80;99.90
7143;DHT22;3613;48.902;9.204;2024-01-15T15:02:53;0.80;99.90
7143;DHT22;3613;48.902;9.204;2024-01-15T15:05:21;0.80;99.90
7143;DHT22;3613;48.902;9.204;2024-01-15T15:07:47;0.80;99.90
7143;DHT22;3613;48.902;9.204;2024-01-15T15:10:13;0.80;99.90
7143;DHT22;3613;48.902;9.204;2024-01-15T15:12:38;0.80;99.90
7143;DHT22;3613;48.902;9.204;2024-01-15T15:15:04;0.80;99.90
7143;DHT22;3613;48.902;9.204;2024-01-15T15:17:35;0.70;99.90
7143;DHT22;3613;48.902;9.204;2024-01-15T15:20:13;0.70;99.90
7143;DHT22;3613;48.902;9.204;2024-01-15T15:22:38;1.70;99.90
7143;DHT22;3613;48.902;9.204;2024-01-15T15:25:10;0.70;99.90
7143;DHT22;3613;48.902;9.204;2024-01-15T15:27:37;0.90;99.90
7143;DHT22;3613;48.902;9.204;2024-01-15T15:30:04;0.70;99.90
7143;DHT22;3613;48.902;9.204;2024-01-15T15:32:29;0.70;99.90
7143;DHT22;3613;48.902;9.204;2024-01-15T15:34:55;0.70;99.90
7143;DHT22;3613;48.902;9.204;2024-01-15T15:37:20;0.70;99.90
7143;DHT22;3613;48.902;9.204;2024-01-15T15:39:48;0.70;99.90
7143;DHT22;3613;48.902;9.204;2024-01-15T15:42:16;0.70;99.90
7143;DHT22;3613;48.902;9.204;2024-01-15T15:44:42;0.70;99.90
7143;DHT22;3613;48.902;9.204;2024-01-15T15:47:13;0.70;99.90
7143;DHT22;3613;48.902;9.204;2024-01-15T15:49:42;0.70;99.90
7143;DHT22;3613;48.902;9.204;2024-01-15T15:52:08;0.70;99.90
7143;DHT22;3613;48.902;9.204;2024-01-15T15:54:34;0.60;99.90
7143;DHT22;3613;48.902;9.204;2024-01-15T15:56:59;0.70;99.90
7143;DHT22;3613;48.902;9.204;2024-01-15T15:59:29;0.60;99.90
7143;DHT22;3613;48.902;9.204;2024-01-15T16:02:00;0.60;99.90
7143;DHT22;3613;48.902;9.204;2024-01-15T16:04:30;0.60;99.90
7143;DHT22;3613;48.902;9.204;2024-01-15T16:06:59;0.60;99.90
7143;DHT22;3613;48.902;9.204;2024-01-15T16:09:25;0.60;99.90
7143;DHT22;3613;48.902;9.204;2024-01-15T16:11:50;0.60;99.90
7143;DHT22;3613;48.902;9.204;2024-01-15T16:14:16;0.60;99.90
7143;DHT22;3613;48.902;9.204;2024-01-15T16:16:43;0.60;99.90
7143;DHT22;3613;48.902;9.204;2024-01-15T16:19:14;0.50;99.90
7143;DHT22;3613;48.902;9.204;2024-01-15T16:21:39;0.50;99.90
7143;DHT22;3613;48.902;9.204;2024-01-15T16:24:05;0.50;99.90
7143;DHT22;3613;48.902;9.204;2024-01-15T16:26:31;0.40;99.90
7143;DHT22;3613;48.902;9.204;2024-01-15T16:28:56;0.40;99.90
7143;DHT22;3613;48.902;9.204;2024-01-15T16:31:24;0.30;99.90
7143;DHT22;3613;48.902;9.204;2024-01-15T16:33:50;0.20;99.90